createdAt,value
2023-08-06T00:00:49.325Z,98396.47
2023-08-06T00:03:37.240Z,98402.75
2023-08-06T00:06:07.282Z,98384.09
2023-08-06T00:08:34.735Z,98388.78
2023-08-06T00:11:01.643Z,98388.94
2023-08-06T00:13:31.204Z,98387.34
2023-08-06T00:16:11.031Z,98392.63
2023-08-06T00:18:43.853Z,98380.16
2023-08-06T00:21:10.899Z,98383.66
2023-08-06T00:23:38.146Z,98380.75
2023-08-06T00:26:05.046Z,98390.72
2023-08-06T00:28:32.269Z,98406.00
2023-08-06T00:30:59.335Z,98396.16
2023-08-06T00:33:26.876Z,98396.59
2023-08-06T00:35:53.844Z,98396.00
2023-08-06T00:38:21.096Z,98388.97
2023-08-06T00:40:48.618Z,98398.66
2023-08-06T00:43:15.977Z,98380.28
2023-08-06T00:45:43.325Z,98382.34
2023-08-06T00:48:10.740Z,98382.19
2023-08-06T00:50:38.456Z,98382.34
2023-08-06T00:53:06.315Z,98382.94
2023-08-06T00:55:34.160Z,98386.03
2023-08-06T00:58:04.682Z,98382.50
2023-08-06T01:00:31.872Z,98378.97
2023-08-06T01:03:01.537Z,98368.38
2023-08-06T01:05:28.767Z,98370.59
2023-08-06T01:07:58.775Z,98349.44
2023-08-06T01:10:46.624Z,98356.94
2023-08-06T01:13:32.574Z,98346.34
2023-08-06T01:16:03.037Z,98340.03
2023-08-06T01:18:32.270Z,98342.84
2023-08-06T01:21:00.593Z,98339.16
2023-08-06T01:23:27.835Z,98337.69
2023-08-06T01:26:04.816Z,98334.16
2023-08-06T01:28:43.990Z,98333.41
2023-08-06T01:31:15.075Z,98326.22
2023-08-06T01:33:48.408Z,98339.44
2023-08-06T01:36:17.982Z,98335.66
2023-08-06T01:38:45.412Z,98335.47
2023-08-06T01:41:12.286Z,98334.72
2023-08-06T01:43:42.520Z,98329.16
2023-08-06T01:46:09.537Z,98320.75
2023-08-06T01:48:37.048Z,98317.84
2023-08-06T01:51:07.356Z,98326.78
2023-08-06T01:53:37.291Z,98328.44
2023-08-06T01:56:04.435Z,98325.50
2023-08-06T01:58:34.402Z,98323.75
2023-08-06T02:01:03.936Z,98310.63
2023-08-06T02:03:31.191Z,98313.00
2023-08-06T02:05:58.132Z,98303.75
2023-08-06T02:08:30.328Z,98300.22
2023-08-06T02:11:00.440Z,98299.78
2023-08-06T02:13:27.794Z,98296.13
2023-08-06T02:15:54.681Z,98300.25
2023-08-06T02:18:21.941Z,98292.47
2023-08-06T02:20:59.078Z,98293.06
2023-08-06T02:23:28.847Z,98290.25
2023-08-06T02:26:14.014Z,98282.94
2023-08-06T02:28:41.304Z,98288.63
2023-08-06T02:31:08.597Z,98282.94
2023-08-06T02:33:38.495Z,98286.28
2023-08-06T02:36:05.747Z,98271.63
2023-08-06T02:38:33.478Z,98279.25
2023-08-06T02:41:00.427Z,98268.69
2023-08-06T02:43:29.733Z,98263.25
2023-08-06T02:46:00.399Z,98250.59
2023-08-06T02:48:27.928Z,98262.34
2023-08-06T02:50:57.986Z,98262.94
2023-08-06T02:53:29.150Z,98251.94
2023-08-06T02:55:56.783Z,98249.00
2023-08-06T02:58:31.290Z,98253.97
2023-08-06T03:01:11.433Z,98252.53
2023-08-06T03:03:46.153Z,98250.00
2023-08-06T03:06:19.915Z,98256.34
2023-08-06T03:08:50.928Z,98261.16
2023-08-06T03:11:17.870Z,98258.81
2023-08-06T03:13:51.903Z,98258.81
2023-08-06T03:16:19.014Z,98258.09
2023-08-06T03:18:46.432Z,98259.56
2023-08-06T03:21:13.569Z,98270.72
2023-08-06T03:23:40.858Z,98260.28
2023-08-06T03:26:08.112Z,98263.97
2023-08-06T03:28:35.367Z,98268.22
2023-08-06T03:31:03.473Z,98265.41
2023-08-06T03:33:37.608Z,98273.94
2023-08-06T03:36:08.573Z,98269.41
2023-08-06T03:38:36.796Z,98271.59
2023-08-06T03:41:06.717Z,98268.06
2023-08-06T03:43:34.014Z,98262.03
2023-08-06T03:46:02.760Z,98248.06
2023-08-06T03:48:29.982Z,98231.31
2023-08-06T03:50:58.158Z,98250.41
2023-08-06T03:53:26.809Z,98244.97
2023-08-06T03:55:53.795Z,98240.69
2023-08-06T03:58:23.372Z,98236.59
2023-08-06T04:00:58.339Z,98241.28
2023-08-06T04:03:25.820Z,98253.50
2023-08-06T04:05:52.896Z,98236.03
2023-08-06T04:08:21.040Z,98250.84
2023-08-06T04:10:51.124Z,98259.50
2023-08-06T04:13:18.471Z,98255.66
2023-08-06T04:15:45.470Z,98257.13
2023-08-06T04:18:12.732Z,98256.88
2023-08-06T04:20:50.527Z,98246.69
2023-08-06T04:23:17.790Z,98250.81
2023-08-06T04:25:44.789Z,98249.63
2023-08-06T04:28:11.999Z,98249.63
2023-08-06T04:30:41.868Z,98240.50
2023-08-06T04:33:09.785Z,98236.53
2023-08-06T04:35:36.684Z,98236.06
2023-08-06T04:38:03.947Z,98236.81
2023-08-06T04:40:30.885Z,98226.38
2023-08-06T04:42:58.100Z,98237.09
2023-08-06T04:45:25.784Z,98244.59
2023-08-06T04:47:53.091Z,98248.28
2023-08-06T04:50:21.054Z,98248.13
2023-08-06T04:52:48.209Z,98248.41
2023-08-06T04:55:15.117Z,98243.44
2023-08-06T04:57:42.307Z,98229.56
2023-08-06T05:00:09.361Z,98242.50
2023-08-06T05:02:39.214Z,98246.47
2023-08-06T05:05:06.531Z,98252.94
2023-08-06T05:07:33.868Z,98248.22
2023-08-06T05:10:00.778Z,98250.56
2023-08-06T05:12:28.071Z,98248.66
2023-08-06T05:14:55.123Z,98240.41
2023-08-06T05:17:24.040Z,98238.00
2023-08-06T05:19:53.511Z,98244.06
2023-08-06T05:22:20.889Z,98254.38
2023-08-06T05:24:47.992Z,98258.63
2023-08-06T05:27:19.816Z,98252.44
2023-08-06T05:29:46.906Z,98251.38
2023-08-06T05:32:14.229Z,98251.13
2023-08-06T05:34:43.733Z,98256.25
2023-08-06T05:37:11.036Z,98256.97
2023-08-06T05:39:40.516Z,98255.66
2023-08-06T05:42:10.171Z,98248.72
2023-08-06T05:44:37.162Z,98256.06
2023-08-06T05:47:06.876Z,98259.88
2023-08-06T05:49:33.773Z,98247.94
2023-08-06T05:52:01.175Z,98259.28
2023-08-06T05:54:30.296Z,98253.69
2023-08-06T05:56:57.564Z,98270.59
2023-08-06T05:59:24.468Z,98255.41
2023-08-06T06:01:54.241Z,98266.13
2023-08-06T06:04:21.798Z,98253.28
2023-08-06T06:06:48.995Z,98262.41
2023-08-06T06:09:16.097Z,98266.66
2023-08-06T06:11:46.143Z,98268.63
2023-08-06T06:14:13.168Z,98278.88
2023-08-06T06:16:40.319Z,98289.03
2023-08-06T06:19:07.388Z,98293.78
2023-08-06T06:21:34.860Z,98290.69
2023-08-06T06:24:01.938Z,98309.19
2023-08-06T06:26:29.585Z,98297.78
2023-08-06T06:28:56.398Z,98295.50
2023-08-06T06:31:26.273Z,98295.66
2023-08-06T06:33:55.747Z,98302.97
2023-08-06T06:36:22.897Z,98307.81
2023-08-06T06:38:50.467Z,98310.59
2023-08-06T06:41:20.069Z,98301.00
2023-08-06T06:43:49.516Z,98307.03
2023-08-06T06:46:16.756Z,98297.81
2023-08-06T06:48:43.835Z,98306.16
2023-08-06T06:51:11.282Z,98306.34
2023-08-06T06:53:38.154Z,98301.03
2023-08-06T06:56:06.283Z,98305.81
2023-08-06T06:58:33.784Z,98304.28
2023-08-06T07:01:01.197Z,98306.59
2023-08-06T07:03:30.736Z,98306.63
2023-08-06T07:06:00.811Z,98296.69
2023-08-06T07:08:27.890Z,98310.06
2023-08-06T07:11:03.033Z,98305.72
2023-08-06T07:13:30.083Z,98303.03
2023-08-06T07:15:59.832Z,98310.97
2023-08-06T07:18:29.097Z,98314.25
2023-08-06T07:20:57.030Z,98310.06
2023-08-06T07:23:25.221Z,98309.34
2023-08-06T07:25:52.674Z,98303.59
2023-08-06T07:28:19.682Z,98312.19
2023-08-06T07:30:47.137Z,98314.00
2023-08-06T07:33:14.240Z,98311.44
2023-08-06T07:35:41.590Z,98299.16
2023-08-06T07:38:08.533Z,98311.09
2023-08-06T07:40:36.780Z,98309.19
2023-08-06T07:43:03.732Z,98298.63
2023-08-06T07:45:34.190Z,98292.28
2023-08-06T07:48:01.174Z,98294.88
2023-08-06T07:50:28.418Z,98302.09
2023-08-06T07:52:55.254Z,98308.31
2023-08-06T07:55:22.475Z,98305.13
2023-08-06T07:57:51.924Z,98299.03
2023-08-06T08:00:19.190Z,98284.91
2023-08-06T08:02:47.740Z,98293.91
2023-08-06T08:05:15.261Z,98290.88
2023-08-06T08:07:45.542Z,98292.94
2023-08-06T08:10:13.136Z,98296.59
2023-08-06T08:12:40.102Z,98307.56
2023-08-06T08:15:07.619Z,98302.66
2023-08-06T08:17:37.291Z,98312.03
2023-08-06T08:20:07.341Z,98310.69
2023-08-06T08:22:34.341Z,98304.22
2023-08-06T08:25:05.442Z,98300.19
2023-08-06T08:27:33.471Z,98296.53
2023-08-06T08:30:00.673Z,98298.50
2023-08-06T08:32:27.951Z,98294.59
2023-08-06T08:34:55.217Z,98285.34
2023-08-06T08:37:22.166Z,98291.31
2023-08-06T08:39:49.434Z,98282.66
2023-08-06T08:42:16.822Z,98286.56
2023-08-06T08:44:44.383Z,98293.50
2023-08-06T08:47:11.936Z,98318.84
2023-08-06T08:49:39.902Z,98301.16
2023-08-06T08:52:07.787Z,98294.25
2023-08-06T08:54:36.158Z,98298.75
2023-08-06T08:57:03.408Z,98293.03
2023-08-06T08:59:31.007Z,98299.41
2023-08-06T09:01:58.201Z,98298.31
2023-08-06T09:04:27.753Z,98300.38
2023-08-06T09:06:55.904Z,98296.13
2023-08-06T09:09:43.789Z,98299.53
2023-08-06T09:12:15.094Z,98300.25
2023-08-06T09:14:43.059Z,98309.53
2023-08-06T09:17:12.093Z,98327.66
2023-08-06T09:19:45.346Z,98329.84
2023-08-06T09:22:14.606Z,98339.22
2023-08-06T09:24:45.178Z,98344.84
2023-08-06T09:27:14.000Z,98346.44
2023-08-06T09:29:45.124Z,98332.16
2023-08-06T09:32:12.824Z,98319.75
2023-08-06T09:34:41.431Z,98325.59
2023-08-06T09:37:11.834Z,98328.75
2023-08-06T09:39:42.781Z,98330.25
2023-08-06T09:42:09.764Z,98328.75
2023-08-06T09:44:37.126Z,98337.19
2023-08-06T09:47:04.826Z,98339.63
2023-08-06T09:49:32.196Z,98335.94
2023-08-06T09:52:01.190Z,98338.88
2023-08-06T09:54:29.957Z,98341.19
2023-08-06T09:56:57.692Z,98342.16
2023-08-06T09:59:25.631Z,98340.94
2023-08-06T10:01:53.251Z,98345.66
2023-08-06T10:04:24.610Z,98335.47
2023-08-06T10:06:53.758Z,98333.41
2023-08-06T10:09:21.670Z,98333.88
2023-08-06T10:11:51.567Z,98338.47
2023-08-06T10:14:28.010Z,98338.97
2023-08-06T10:16:57.418Z,98339.44
2023-08-06T10:19:26.067Z,98348.84
2023-08-06T10:22:14.006Z,98342.72
2023-08-06T10:25:05.681Z,98345.66
2023-08-06T10:27:54.132Z,98361.84
2023-08-06T10:30:32.760Z,98360.41
2023-08-06T10:33:04.066Z,98366.50
2023-08-06T10:35:38.624Z,98373.94
2023-08-06T10:38:12.936Z,98367.75
2023-08-06T10:40:41.332Z,98366.78
2023-08-06T10:43:11.655Z,98367.28
2023-08-06T10:45:39.192Z,98376.56
2023-08-06T10:48:06.239Z,98379.97
2023-08-06T10:50:33.997Z,98381.94
2023-08-06T10:53:06.125Z,98369.63
2023-08-06T10:55:33.773Z,98381.34
2023-08-06T10:58:00.763Z,98375.25
2023-08-06T11:00:28.083Z,98376.59
2023-08-06T11:02:56.354Z,98380.00
2023-08-06T11:05:26.978Z,98380.63
2023-08-06T11:07:54.018Z,98381.81
2023-08-06T11:10:23.574Z,98370.38
2023-08-06T11:12:52.982Z,98386.91
2023-08-06T11:15:21.870Z,98385.91
2023-08-06T11:17:48.900Z,98387.75
2023-08-06T11:20:18.008Z,98389.47
2023-08-06T11:22:45.394Z,98390.13
2023-08-06T11:25:12.656Z,98396.59
2023-08-06T11:27:39.794Z,98389.16
2023-08-06T11:30:07.260Z,98398.09
2023-08-06T11:32:36.359Z,98395.28
2023-08-06T11:35:10.700Z,98394.16
2023-08-06T11:37:40.565Z,98400.16
2023-08-06T11:40:09.818Z,98396.00
2023-08-06T11:42:39.211Z,98403.78
2023-08-06T11:45:06.639Z,98397.81
2023-08-06T11:47:33.852Z,98406.97
2023-08-06T11:50:01.206Z,98405.66
2023-08-06T11:52:31.616Z,98407.84
2023-08-06T11:55:03.997Z,98414.66
2023-08-06T11:57:34.191Z,98410.91
2023-08-06T12:00:12.149Z,98430.28
2023-08-06T12:02:46.263Z,98426.53
2023-08-06T12:05:17.423Z,98424.56
2023-08-06T12:07:51.495Z,98421.03
2023-08-06T12:10:22.924Z,98427.13
2023-08-06T12:12:51.195Z,98427.13
2023-08-06T12:15:18.840Z,98418.09
2023-08-06T12:17:45.912Z,98432.13
2023-08-06T12:20:13.410Z,98424.34
2023-08-06T12:22:42.685Z,98427.94
2023-08-06T12:25:15.296Z,98430.41
2023-08-06T12:27:46.034Z,98430.22
2023-08-06T12:30:15.872Z,98429.00
2023-08-06T12:32:42.941Z,98437.56
2023-08-06T12:35:10.376Z,98430.38
2023-08-06T12:37:39.804Z,98437.06
2023-08-06T12:40:24.832Z,98434.59
2023-08-06T12:42:54.536Z,98440.00
2023-08-06T12:45:22.789Z,98437.56
2023-08-06T12:47:50.990Z,98439.50
2023-08-06T12:50:18.887Z,98441.44
2023-08-06T12:52:46.333Z,98435.47
2023-08-06T12:55:13.575Z,98440.34
2023-08-06T12:57:56.758Z,98439.75
2023-08-06T13:00:26.197Z,98445.00
2023-08-06T13:02:53.709Z,98446.09
2023-08-06T13:05:21.600Z,98452.56
2023-08-06T13:07:48.993Z,98449.88
2023-08-06T13:10:19.386Z,98451.47
2023-08-06T13:12:48.668Z,98457.56
2023-08-06T13:15:22.169Z,98456.00
2023-08-06T13:17:49.486Z,98453.31
2023-08-06T13:20:19.424Z,98455.56
2023-08-06T13:22:51.421Z,98459.44
2023-08-06T13:25:19.821Z,98454.69
2023-08-06T13:27:47.371Z,98465.09
2023-08-06T13:30:14.985Z,98463.50
2023-08-06T13:32:42.217Z,98459.72
2023-08-06T13:35:11.948Z,98466.88
2023-08-06T13:37:39.133Z,98463.94
2023-08-06T13:40:07.975Z,98466.13
2023-08-06T13:42:35.195Z,98477.13
2023-08-06T13:45:05.156Z,98476.00
2023-08-06T13:47:32.607Z,98474.66
2023-08-06T13:52:45.255Z,98479.22
2023-08-06T13:55:12.560Z,98474.53
2023-08-06T13:57:42.623Z,98485.41
2023-08-06T14:00:10.300Z,98481.53
2023-08-06T14:02:45.147Z,98473.06
2023-08-06T14:05:13.183Z,98481.03
2023-08-06T14:07:40.611Z,98482.75
2023-08-06T14:10:10.371Z,98482.81
2023-08-06T14:12:37.520Z,98474.81
2023-08-06T14:15:05.237Z,98478.00
2023-08-06T14:17:32.554Z,98475.28
2023-08-06T14:20:02.007Z,98477.25
2023-08-06T14:22:32.395Z,98475.72
2023-08-06T14:25:00.161Z,98479.50
2023-08-06T14:27:27.590Z,98479.81
2023-08-06T14:29:55.111Z,98486.41
2023-08-06T14:32:24.716Z,98480.13
2023-08-06T14:34:53.277Z,98482.50
2023-08-06T14:37:22.376Z,98494.41
2023-08-06T14:39:52.009Z,98489.38
2023-08-06T14:42:19.720Z,98503.31
2023-08-06T14:44:47.542Z,98517.34
2023-08-06T14:47:14.858Z,98512.97
2023-08-06T14:49:45.929Z,98537.69
2023-08-06T14:52:15.638Z,98529.56
2023-08-06T14:54:43.959Z,98532.00
2023-08-06T14:57:11.892Z,98536.47
2023-08-06T14:59:41.912Z,98535.66
2023-08-06T15:02:10.544Z,98521.44
2023-08-06T15:04:38.192Z,98517.41
2023-08-06T15:07:06.185Z,98519.63
2023-08-06T15:09:49.902Z,98514.56
2023-08-06T15:12:22.918Z,98516.59
2023-08-06T15:14:50.453Z,98525.84
2023-08-06T15:17:18.004Z,98525.09
2023-08-06T15:19:45.371Z,98517.78
2023-08-06T15:22:13.765Z,98526.78
2023-08-06T15:24:45.115Z,98512.34
2023-08-06T15:27:13.412Z,98519.22
2023-08-06T15:29:41.694Z,98523.81
2023-08-06T15:32:11.727Z,98517.63
2023-08-06T15:34:39.127Z,98522.28
2023-08-06T15:37:06.514Z,98532.69
2023-08-06T15:39:34.349Z,98522.53
2023-08-06T15:42:01.957Z,98517.75
2023-08-06T15:44:29.711Z,98521.78
2023-08-06T15:46:57.380Z,98522.53
2023-08-06T15:49:25.430Z,98520.47
2023-08-06T15:51:54.131Z,98524.59
2023-08-06T15:54:24.518Z,98527.28
2023-08-06T15:56:51.954Z,98514.25
2023-08-06T15:59:29.976Z,98529.84
2023-08-06T16:02:00.923Z,98528.50
2023-08-06T16:04:31.752Z,98525.69
2023-08-06T16:07:02.276Z,98523.19
2023-08-06T16:09:29.830Z,98527.44
2023-08-06T16:11:59.437Z,98527.97
2023-08-06T16:14:27.326Z,98522.22
2023-08-06T16:16:55.022Z,98520.66
2023-08-06T16:19:23.033Z,98519.28
2023-08-06T16:21:50.427Z,98516.75
2023-08-06T16:24:18.304Z,98522.53
2023-08-06T16:26:45.662Z,98523.69
2023-08-06T16:29:14.369Z,98532.59
2023-08-06T16:31:41.934Z,98530.94
2023-08-06T16:34:09.376Z,98543.88
2023-08-06T16:36:36.851Z,98543.16
2023-08-06T16:39:06.849Z,98559.91
2023-08-06T16:41:33.832Z,98562.59
2023-08-06T16:44:03.838Z,98576.25
2023-08-06T16:46:33.614Z,98570.59
2023-08-06T16:49:01.332Z,98585.53
2023-08-06T16:51:28.798Z,98582.50
2023-08-06T16:53:56.554Z,98580.63
2023-08-06T16:56:25.986Z,98588.50
2023-08-06T16:58:53.492Z,98592.03
2023-08-06T17:01:20.791Z,98594.28
2023-08-06T17:03:49.727Z,98587.59
2023-08-06T17:06:18.027Z,98590.50
2023-08-06T17:08:47.700Z,98594.63
2023-08-06T17:11:18.422Z,98590.06
2023-08-06T17:13:48.646Z,98595.75
2023-08-06T17:16:17.957Z,98602.28
2023-08-06T17:18:45.631Z,98608.81
2023-08-06T17:21:13.297Z,98618.09
2023-08-06T17:23:41.379Z,98619.03
2023-08-06T17:26:08.710Z,98618.47
2023-08-06T17:28:36.070Z,98614.25
2023-08-06T17:31:03.840Z,98609.41
2023-08-06T17:33:31.636Z,98613.81
2023-08-06T17:35:59.368Z,98620.22
2023-08-06T17:38:27.122Z,98613.44
2023-08-06T17:40:55.357Z,98611.53
2023-08-06T17:43:27.308Z,98618.78
2023-08-06T17:45:54.990Z,98611.97
2023-08-06T17:48:22.885Z,98631.28
2023-08-06T17:50:50.580Z,98618.03
2023-08-06T17:53:20.600Z,98626.41
2023-08-06T17:55:48.413Z,98637.47
2023-08-06T17:58:16.039Z,98625.13
2023-08-06T18:00:45.704Z,98630.13
2023-08-06T18:03:20.523Z,98627.91
2023-08-06T18:05:48.040Z,98635.25
2023-08-06T18:08:15.747Z,98630.16
2023-08-06T18:10:42.924Z,98646.03
2023-08-06T18:13:10.774Z,98648.97
2023-08-06T18:15:37.901Z,98646.03
2023-08-06T18:18:05.942Z,98644.25
2023-08-06T18:20:33.539Z,98649.13
2023-08-06T18:23:01.340Z,98650.28
2023-08-06T18:25:28.674Z,98638.50
2023-08-06T18:27:55.969Z,98648.72
2023-08-06T18:30:23.042Z,98657.09
2023-08-06T18:32:51.569Z,98657.97
2023-08-06T18:35:23.033Z,98660.91
2023-08-06T18:37:53.307Z,98661.06
2023-08-06T18:40:20.540Z,98664.59
2023-08-06T18:42:48.110Z,98673.00
2023-08-06T18:45:15.685Z,98676.34
2023-08-06T18:47:43.546Z,98674.00
2023-08-06T18:50:11.487Z,98675.19
2023-08-06T18:52:45.575Z,98695.50
2023-08-06T18:55:13.377Z,98678.13
2023-08-06T18:57:44.757Z,98682.53
2023-08-06T19:00:14.467Z,98685.94
2023-08-06T19:02:42.156Z,98693.88
2023-08-06T19:05:11.761Z,98688.72
2023-08-06T19:07:42.392Z,98690.94
2023-08-06T19:10:13.188Z,98700.50
2023-08-06T19:12:40.756Z,98692.13
2023-08-06T19:15:08.382Z,98703.91
2023-08-06T19:17:36.035Z,98705.06
2023-08-06T19:20:03.556Z,98707.41
2023-08-06T19:22:31.111Z,98704.44
2023-08-06T19:24:58.326Z,98712.25
2023-08-06T19:27:26.212Z,98706.19
2023-08-06T19:29:54.279Z,98707.66
2023-08-06T19:32:21.917Z,98726.91
2023-08-06T19:34:49.510Z,98717.78
2023-08-06T19:37:20.038Z,98712.47
2023-08-06T19:39:47.001Z,98716.28
2023-08-06T19:42:14.951Z,98724.38
2023-08-06T19:44:42.212Z,98729.34
2023-08-06T19:47:09.944Z,98713.44
2023-08-06T19:49:37.528Z,98708.59
2023-08-06T19:52:05.309Z,98718.59
2023-08-06T19:54:35.319Z,98709.00
2023-08-06T19:57:03.228Z,98718.13
2023-08-06T19:59:30.385Z,98714.00
2023-08-06T20:01:58.113Z,98719.28
2023-08-06T20:04:26.132Z,98707.69
2023-08-06T20:06:55.023Z,98713.44
2023-08-06T20:09:24.620Z,98722.41
2023-08-06T20:11:52.498Z,98719.44
2023-08-06T20:14:20.237Z,98707.06
2023-08-06T20:16:48.130Z,98704.13
2023-08-06T20:19:15.369Z,98712.97
2023-08-06T20:21:42.962Z,98691.22
2023-08-06T20:24:09.922Z,98708.69
2023-08-06T20:26:37.442Z,98707.81
2023-08-06T20:29:07.005Z,98715.78
2023-08-06T20:31:34.469Z,98718.72
2023-08-06T20:34:01.988Z,98706.81
2023-08-06T20:36:29.631Z,98725.94
2023-08-06T20:38:59.875Z,98721.50
2023-08-06T20:41:27.569Z,98720.03
2023-08-06T20:43:54.994Z,98710.78
2023-08-06T20:46:22.572Z,98712.97
2023-08-06T20:48:50.592Z,98718.84
2023-08-06T20:51:18.003Z,98713.56
2023-08-06T20:53:45.418Z,98720.13
2023-08-06T20:56:13.990Z,98734.53
2023-08-06T20:58:41.060Z,98726.00
2023-08-06T21:01:08.395Z,98727.56
2023-08-06T21:03:35.648Z,98728.09
2023-08-06T21:06:07.014Z,98721.03
2023-08-06T21:08:34.699Z,98735.13
2023-08-06T21:11:02.246Z,98739.47
2023-08-06T21:13:30.042Z,98751.03
2023-08-06T21:16:03.840Z,98735.47
2023-08-06T21:18:31.553Z,98744.84
2023-08-06T21:20:59.065Z,98745.84
2023-08-06T21:23:26.381Z,98748.28
2023-08-06T21:25:57.125Z,98754.63
2023-08-06T21:28:25.336Z,98773.56
2023-08-06T21:31:02.246Z,98775.44
2023-08-06T21:33:30.400Z,98788.34
2023-08-06T21:35:59.655Z,98774.41
2023-08-06T21:38:26.637Z,98775.16
2023-08-06T21:40:55.030Z,98772.94
2023-08-06T21:43:21.996Z,98777.94
2023-08-06T21:45:49.238Z,98774.81
2023-08-06T21:48:16.153Z,98780.06
2023-08-06T21:50:43.438Z,98776.56
2023-08-06T21:53:10.402Z,98774.47
2023-08-06T21:55:37.567Z,98785.38
2023-08-06T21:58:07.643Z,98778.34
2023-08-06T22:00:35.593Z,98781.84
2023-08-06T22:03:05.893Z,98794.50
2023-08-06T22:05:33.439Z,98785.72
2023-08-06T22:08:00.318Z,98781.38
2023-08-06T22:10:27.647Z,98795.81
2023-08-06T22:12:54.697Z,98799.50
2023-08-06T22:15:21.883Z,98797.13
2023-08-06T22:17:48.954Z,98788.03
2023-08-06T22:20:17.314Z,98783.56
2023-08-06T22:22:44.242Z,98775.63
2023-08-06T22:25:11.623Z,98772.66
2023-08-06T22:27:38.587Z,98763.56
2023-08-06T22:30:17.189Z,98756.75
2023-08-06T22:32:50.676Z,98766.09
2023-08-06T22:35:18.521Z,98765.06
2023-08-06T22:37:48.228Z,98754.72
2023-08-06T22:40:16.202Z,98757.34
2023-08-06T22:42:44.468Z,98752.59
2023-08-06T22:45:12.197Z,98755.78
2023-08-06T22:47:39.497Z,98759.16
2023-08-06T22:50:09.675Z,98751.84
2023-08-06T22:52:37.115Z,98754.38
2023-08-06T22:55:19.010Z,98749.91
2023-08-06T22:57:51.083Z,98760.31
2023-08-06T23:00:18.402Z,98757.50
2023-08-06T23:02:58.987Z,98756.53
2023-08-06T23:05:33.305Z,98756.19
2023-08-06T23:08:00.411Z,98762.50
2023-08-06T23:10:28.054Z,98754.72
2023-08-06T23:12:55.110Z,98757.34
2023-08-06T23:15:22.340Z,98758.84
2023-08-06T23:17:49.414Z,98765.53
2023-08-06T23:20:16.712Z,98763.09
2023-08-06T23:22:43.955Z,98757.75
2023-08-06T23:25:11.238Z,98757.59
2023-08-06T23:27:40.503Z,98761.13
2023-08-06T23:30:11.771Z,98769.31
2023-08-06T23:32:39.314Z,98757.75
2023-08-06T23:35:06.707Z,98756.88
2023-08-06T23:37:36.700Z,98756.88
2023-08-06T23:40:04.433Z,98762.75
2023-08-06T23:42:31.400Z,98772.44
2023-08-06T23:44:58.780Z,98777.09
2023-08-06T23:47:29.597Z,98762.44
2023-08-06T23:49:57.012Z,98773.03
2023-08-06T23:52:23.939Z,98776.94
2023-08-06T23:54:51.591Z,98766.19
2023-08-06T23:57:22.769Z,98772.84
2023-08-06T23:59:50.114Z,98776.63
